OSOK1: Oswego hwy 160

Data processed at Sat Mar 10 2018 23:49


All information presented herein is the property of the government of the United States of America and may be revised or deleted at any time without prior notice.
Dissemination of this information without the expressed written consent of the Public Affairs Office, Tulsa District U.S. Army Corps of Engineers is strictly prohibited.
These data are gathered electronically and, as presented, have not undergone any form of quality control. These data are not guaranteed to be valid or correct.
Go to home page.
Go to station list.

Upstream stations:

Downstream station:
Previous Day
Next Day
Current Day
    
SHEF ID:       OSOK1     Oswego hwy 160
STATION TYPE:  

               PRECIP     STAGE  RIV-FLOW   VOLTAGE  BAT-LOAD
                   in        ft       cfs      volt      volt
              Ccp-Rev   Ccp-Rev   Ccp-Rev   Ccp-Rev   Ccp-Rev
(US/Central)
03/08 00:00      0.00      9.15       567     12.65     12.49
03/08 01:00      0.00      9.12       536     12.57     12.49
03/08 02:00      0.00      9.14       556     12.57     12.41
03/08 03:00      0.00      9.13       546     12.57     12.41
03/08 04:00      0.00      9.14       556     12.57     12.41
03/08 05:00      0.00      9.13       546     12.57     12.41
03/08 06:00      0.00      9.13       546     12.49     12.41
03/08 07:00      0.00      9.12       536     12.49     12.41
03/08 08:00      0.00      9.10       517     13.68     13.21
03/08 09:00      0.00      9.12       536     13.53     13.44
03/08 10:00      0.00      9.11       526     13.44     13.44
03/08 11:00      0.00      9.10       517     13.60     13.60
03/08 12:00      0.00      9.10       517     13.53     13.68
03/08 13:00      0.00      9.10       517     13.68     13.53
03/08 14:00      0.00      9.09       507     13.68     13.68
03/08 15:00      0.00      9.06       480     13.44     13.44
03/08 16:00      0.00      9.09       507     14.00     13.21
03/08 17:00      0.00      9.08       498     13.53     13.13
03/08 18:00      0.00      9.06       480     13.05     12.97
03/08 19:00      0.00      9.06       480     12.81     12.73
03/08 20:00      0.00      9.06       480     12.73     12.65
03/08 21:00      0.00      9.07       489     12.73     12.57
03/08 22:00      0.00      9.03       454     12.65     12.57
03/08 23:00      0.00      9.06       480     12.65     12.57